createdAt,value
2023-05-01T00:07:03.581Z,981.80
2023-05-01T00:19:03.987Z,981.70
2023-05-01T00:31:04.417Z,981.61
2023-05-01T00:43:04.870Z,981.61
2023-05-01T00:55:05.423Z,981.48
2023-05-01T01:07:05.772Z,981.65
2023-05-01T01:19:06.215Z,981.81
2023-05-01T01:31:06.674Z,981.62
2023-05-01T01:43:07.179Z,981.56
2023-05-01T01:55:07.572Z,981.51
2023-05-01T02:07:08.039Z,981.42
2023-05-01T02:19:08.504Z,981.44
2023-05-01T02:31:09.009Z,981.41
2023-05-01T02:43:09.395Z,981.35
2023-05-01T02:55:09.860Z,981.34
2023-05-01T03:07:10.291Z,981.23
2023-05-01T03:19:10.769Z,981.05
2023-05-01T03:31:11.216Z,981.12
2023-05-01T03:43:11.667Z,981.04
2023-05-01T03:55:12.122Z,981.13
2023-05-01T04:07:12.616Z,981.01
2023-05-01T04:19:13.013Z,981.11
2023-05-01T04:31:13.500Z,981.17
2023-05-01T04:43:13.907Z,981.21
2023-05-01T04:55:14.385Z,981.34
2023-05-01T05:07:14.848Z,981.31
2023-05-01T05:19:15.275Z,981.25
2023-05-01T05:31:15.730Z,981.29
2023-05-01T05:43:16.226Z,981.31
2023-05-01T05:55:16.659Z,981.33
2023-05-01T06:07:17.079Z,981.31
2023-05-01T06:19:17.551Z,981.37
2023-05-01T06:31:18.094Z,981.33
2023-05-01T06:43:18.458Z,981.17
2023-05-01T06:55:18.931Z,981.03
2023-05-01T07:07:19.373Z,980.97
2023-05-01T07:19:19.845Z,981.00
2023-05-01T07:31:20.310Z,980.98
2023-05-01T07:43:20.761Z,980.94
2023-05-01T07:55:21.147Z,981.02
2023-05-01T08:07:21.688Z,981.03
2023-05-01T08:19:22.071Z,981.10
2023-05-01T08:31:22.593Z,980.96
2023-05-01T08:43:23.006Z,980.93
2023-05-01T08:55:23.454Z,980.76
2023-05-01T09:07:23.925Z,981.00
2023-05-01T09:19:24.345Z,980.91
2023-05-01T09:31:24.893Z,980.89
2023-05-01T09:43:25.298Z,980.72
2023-05-01T09:55:26.015Z,980.75
2023-05-01T10:07:26.177Z,980.58
2023-05-01T10:19:26.605Z,980.55
2023-05-01T10:31:27.213Z,980.44
2023-05-01T10:43:27.541Z,980.40
2023-05-01T10:55:28.030Z,980.44
2023-05-01T11:07:28.437Z,980.24
2023-05-01T11:19:29.498Z,980.16
2023-05-01T11:31:29.347Z,979.96
2023-05-01T11:43:29.787Z,980.05
2023-05-01T11:55:30.261Z,979.79
2023-05-01T12:07:30.738Z,979.77
2023-05-01T12:19:31.182Z,979.70
2023-05-01T12:31:31.797Z,979.42
2023-05-01T12:43:32.066Z,979.52
2023-05-01T12:55:32.553Z,979.35
2023-05-01T13:07:32.998Z,979.25
2023-05-01T13:19:33.448Z,979.06
2023-05-01T13:31:33.906Z,978.83
2023-05-01T13:43:34.375Z,978.74
2023-05-01T13:55:34.801Z,978.54
2023-05-01T14:07:35.252Z,978.44
2023-05-01T14:19:35.707Z,978.37
2023-05-01T14:31:36.211Z,978.24
2023-05-01T14:43:36.618Z,978.12
2023-05-01T14:55:37.101Z,978.14
2023-05-01T15:07:37.558Z,978.02
2023-05-01T15:19:38.004Z,978.04
2023-05-01T15:31:38.489Z,977.98
2023-05-01T15:43:38.909Z,978.00
2023-05-01T15:55:39.400Z,977.75
2023-05-01T16:07:39.832Z,977.76
2023-05-01T16:19:40.274Z,977.75
2023-05-01T16:31:40.771Z,977.69
2023-05-01T16:43:41.202Z,977.66
2023-05-01T16:55:41.659Z,977.71
2023-05-01T17:07:42.086Z,977.68
2023-05-01T17:19:42.564Z,977.71
2023-05-01T17:31:43.109Z,977.73
2023-05-01T17:43:43.498Z,977.75
2023-05-01T17:55:43.906Z,977.83
2023-05-01T18:07:44.362Z,977.85
2023-05-01T18:19:44.806Z,977.82
2023-05-01T18:31:45.319Z,977.90
2023-05-01T18:43:45.728Z,977.93
2023-05-01T18:55:46.197Z,978.11
2023-05-01T19:07:46.711Z,978.13
2023-05-01T19:19:47.118Z,978.11
2023-05-01T19:31:47.580Z,978.12
2023-05-01T19:43:48.032Z,978.20
2023-05-01T19:55:48.457Z,978.26
2023-05-01T20:07:48.916Z,978.31
2023-05-01T20:19:49.370Z,978.40
2023-05-01T20:31:49.819Z,978.33
2023-05-01T20:43:50.263Z,978.44
2023-05-01T20:55:50.774Z,978.48
2023-05-01T21:07:51.183Z,978.60
2023-05-01T21:19:51.631Z,978.50
2023-05-01T21:31:52.103Z,978.62
2023-05-01T21:43:52.567Z,978.68
2023-05-01T21:55:52.988Z,978.63
2023-05-01T22:07:53.440Z,978.63
2023-05-01T22:19:53.896Z,978.59
2023-05-01T22:31:54.391Z,978.66
2023-05-01T22:43:54.797Z,978.56
2023-05-01T22:55:55.300Z,978.55
2023-05-01T23:07:56.227Z,978.53
2023-05-01T23:19:56.234Z,978.51
2023-05-01T23:31:56.635Z,978.38
2023-05-01T23:43:57.066Z,978.43
2023-05-01T23:55:57.560Z,978.34
